Accueil
METAR-TAF:

METAR-TAF

Aéroports :

Richard Lloyd Jones Jr. Airport

Tulsa, Oklahoma, États-Unis

latitude: 36-02-33N, longitude: 095-59-22W, altitude: 194 m

Observation

Le bulletin a été fait il y a 1 heure et 3 minutes, à 00:53 UTC
Vent calme
Température 2°C
Humidité 69%
Pression 1027 hPa
Visibilité: 16.1 km
Ciel clair

METAR: KRVS 110053Z 00000KT 10SM CLR 02/M03 A3033 RMK AO2 SLP283 T00171033

Heure: 19:56 (01:56 UTC)

Prévision

Le bulletin a été fait il y a 2 heures et 36 minutes, à 23:20 UTC
Prévision valable du 11 à 00 UTC au 11 à 24 UTC
Vent 4 kt de sud
Visibilité: 10 km
Ciel clair
A partir de 11 à 1600 UTC
Vent 12 kt de sud avec des rafales jusqu'à 20 kt
Visibilité: 10 km
Nuages fragmentés à une hauteur de 25000 ft

TAF: KRVS 102320Z 1100/1124 17004KT P6SM SKC FM111600 19012G20KT P6SM BKN250

Observations et prévisions météorologiques de plus de 4000 aéroports (messages METAR et TAF).

Les stations disponibles sont représentées par des disques jaunes et rouges sur la carte.

Passer la souris dessus pour voir le nom de la station.

Cliquer dessus pour voir les observations et prévisions météorologiques.

Pour changer de carte: cliquez sur les boutons verts avec une croix noire pour zoomer, sur le bouton vert avec un tiret pour effectuer un zoom arrière, ou sur les flèches vertes pour les cartes adjacentes.


METAR-TAF: